Time;durP1;ratioP1;P1;durP2;ratioP2;P2;SDS_P1;SDS_P2;PMS_P1;PMS_P2;Temp;Humidity;BMP_temperature;BMP_pressure;BME280_temperature;BME280_humidity;BME280_pressure;Samples;Min_cycle;Max_cycle;Signal;HPM_P1;HPM_P2
2023/01/30 00:00:01;;;;;;;2.67;1.40;;;;;;;17.61;55.74;99315.06;2071954;28;20413;-52
2023/01/30 00:01:04;;;;;;;;;;;;;;;17.50;55.84;99309.28;2071887;28;20423;-51
2023/01/30 00:02:05;;;;;;;1.90;1.50;;;;;;;17.56;55.75;99308.56;2071861;28;20305;-46
2023/01/30 00:03:06;;;;;;;;;;;;;;;17.48;55.88;99314.81;2070757;28;20136;-48
2023/01/30 00:04:11;;;;;;;1.83;1.38;;;;;;;17.54;55.82;99311.41;2072323;28;19970;-51
2023/01/30 00:05:12;;;;;;;2.15;1.58;;;;;;;17.56;55.73;99314.75;2072092;28;20068;-48
2023/01/30 00:06:14;;;;;;;1.73;1.33;;;;;;;17.59;55.67;99311.72;2068980;28;20115;-50
2023/01/30 00:07:16;;;;;;;1.60;1.50;;;;;;;17.58;55.74;99310.06;2069707;28;20053;-52
2023/01/30 00:08:17;;;;;;;1.77;1.33;;;;;;;17.60;55.73;99307.16;2068197;28;21056;-53
2023/01/30 00:09:20;;;;;;;2.33;1.70;;;;;;;17.59;55.66;99310.88;2066773;28;20516;-56
2023/01/30 00:10:21;;;;;;;3.05;1.50;;;;;;;17.57;55.58;99310.22;2069986;28;20053;-52
2023/01/30 00:11:22;;;;;;;;;;;;;;;17.46;55.96;99311.47;2068487;28;20605;-47
2023/01/30 00:12:23;;;;;;;1.88;1.58;;;;;;;17.48;55.76;99317.50;2069658;28;20107;-50
2023/01/30 00:13:24;;;;;;;;;;;;;;;17.37;56.04;99316.06;2071863;28;20557;-48
2023/01/30 00:14:25;;;;;;;1.98;1.30;;;;;;;17.42;55.97;99315.53;2069438;28;19921;-48
2023/01/30 00:15:26;;;;;;;;;;;;;;;17.33;56.05;99314.78;2073353;28;20057;-50
2023/01/30 00:16:27;;;;;;;2.20;1.42;;;;;;;17.39;56.13;99313.22;2074944;28;20028;-51
2023/01/30 00:17:28;;;;;;;;;;;;;;;17.27;56.35;99311.94;2075387;28;20519;-50
2023/01/30 00:18:30;;;;;;;2.05;1.55;;;;;;;17.33;56.25;99308.59;2070442;28;19958;-47
2023/01/30 00:19:31;;;;;;;1.45;1.10;;;;;;;17.37;56.00;99304.50;2080543;28;20055;-48
2023/01/30 00:20:32;;;;;;;1.52;1.35;;;;;;;17.40;55.83;99304.16;2070788;28;20061;-54
2023/01/30 00:21:34;;;;;;;;;;;;;;;17.30;56.07;99309.78;2068394;28;20050;-50
2023/01/30 00:22:34;;;;;;;;;;;;;;;17.20;56.34;99304.63;2073636;28;19925;-50
2023/01/30 00:23:37;;;;;;;3.13;1.70;;;;;;;17.26;56.20;99308.44;2072768;28;20445;-51
2023/01/30 00:24:39;;;;;;;2.58;1.60;;;;;;;17.32;56.21;99312.25;2070306;28;20499;-54
2023/01/30 00:25:45;;;;;;;2.70;1.33;;;;;;;17.35;56.02;99306.53;2072147;28;20140;-51
2023/01/30 00:26:45;;;;;;;2.35;1.23;;;;;;;17.33;56.10;99303.22;2067870;28;20096;-52
2023/01/30 00:27:47;;;;;;;;;;;;;;;17.24;55.96;99307.78;2073231;28;20053;-52
2023/01/30 00:28:48;;;;;;;2.08;1.45;;;;;;;17.29;56.15;99307.25;2068705;28;19979;-45
2023/01/30 00:29:49;;;;;;;2.05;1.65;;;;;;;17.32;56.00;99301.53;2069232;28;20484;-49
2023/01/30 00:30:51;;;;;;;;;;;;;;;17.19;56.31;99305.66;2070356;28;20072;-51
2023/01/30 00:31:52;;;;;;;1.60;1.30;;;;;;;17.23;56.27;99297.25;2068681;28;19929;-51
2023/01/30 00:32:54;;;;;;;;;;;;;;;17.10;56.54;99304.00;2066612;28;21101;-47
2023/01/30 00:33:55;;;;;;;2.70;1.42;;;;;;;17.18;56.18;99300.44;2070954;28;19933;-49
2023/01/30 00:34:56;;;;;;;;;;;;;;;17.10;56.42;99301.34;2066922;28;20045;-50
2023/01/30 00:36:00;;;;;;;1.58;1.23;;;;;;;17.16;56.34;99307.84;2072639;28;20367;-51
2023/01/30 00:37:02;;;;;;;3.03;1.45;;;;;;;17.19;56.23;99308.34;2071324;28;20756;-54
2023/01/30 00:38:02;;;;;;;2.83;1.48;;;;;;;17.23;56.18;99297.25;2069093;28;20061;-47
2023/01/30 00:39:04;;;;;;;;;;;;;;;17.10;56.28;99306.69;2069033;28;20053;-51
2023/01/30 00:40:07;;;;;;;1.15;1.02;;;;;;;17.11;56.30;99303.03;2068031;28;19990;-50
2023/01/30 00:41:12;;;;;;;1.20;1.10;;;;;;;17.12;56.45;99296.63;2072422;28;20144;-54
2023/01/30 00:47:35;;;;;;;1.83;1.50;;;;;;;17.07;56.44;99290.97;2068792;28;20045;-44
2023/01/30 00:48:35;;;;;;;1.98;1.70;;;;;;;17.09;56.37;99296.16;2069020;28;20057;-46
2023/01/30 00:49:37;;;;;;;;;;;;;;;16.94;56.65;99286.22;2061218;28;20041;-46
2023/01/30 00:50:43;;;;;;;;;;;;;;;16.86;56.92;99290.78;2072899;28;19925;-47
2023/01/30 00:51:45;;;;;;;1.80;1.52;;;;;;;16.93;56.72;99286.38;2070906;28;20020;-48
2023/01/30 00:52:46;;;;;;;1.73;1.30;;;;;;;16.99;56.56;99293.69;2070251;28;20103;-51
2023/01/30 00:53:47;;;;;;;;;;;;;;;16.91;56.66;99285.72;2067622;28;20461;-48
2023/01/30 00:54:50;;;;;;;1.60;1.00;;;;;;;16.94;56.69;99286.22;2065850;28;20507;-48
2023/01/30 00:55:54;;;;;;;2.05;1.55;;;;;;;16.99;56.21;99291.03;2065920;28;20062;-50
2023/01/30 00:56:54;;;;;;;2.55;1.60;;;;;;;17.01;56.30;99283.66;2066940;28;20062;-48
2023/01/30 00:57:56;;;;;;;;;;;;;;;16.89;56.61;99285.06;2069734;28;20155;-49
2023/01/30 00:58:56;;;;;;;2.30;1.40;;;;;;;16.92;56.64;99282.03;2069787;28;19982;-48
2023/01/30 00:59:58;;;;;;;1.25;1.10;;;;;;;16.95;56.40;99284.38;2067167;28;20462;-50
2023/01/30 01:00:59;;;;;;;1.73;1.55;;;;;;;16.95;56.29;99279.00;2066664;28;20544;-48
2023/01/30 01:02:00;;;;;;;;;;;;;;;16.83;56.59;99277.75;2072422;28;20119;-53
2023/01/30 01:03:01;;;;;;;3.17;2.28;;;;;;;16.87;56.82;99279.06;2070741;28;19928;-48
2023/01/30 01:04:02;;;;;;;;;;;;;;;16.78;56.72;99282.78;2069285;28;20557;-51
2023/01/30 01:05:03;;;;;;;1.60;1.50;;;;;;;16.84;56.78;99279.41;2073211;28;20439;-48
2023/01/30 01:06:05;;;;;;;1.67;1.30;;;;;;;16.89;56.46;99280.53;2071153;28;20092;-47
2023/01/30 01:07:06;;;;;;;2.47;1.45;;;;;;;16.90;56.51;99281.38;2070536;28;20143;-51
2023/01/30 01:08:08;;;;;;;;;;;;;;;16.78;56.81;99280.13;2065562;28;20053;-48
2023/01/30 01:09:08;;;;;;;1.42;1.33;;;;;;;16.80;56.70;99280.75;2071115;28;19974;-48
2023/01/30 01:10:15;;;;;;;;;;;;;;;16.70;56.90;99275.59;2067543;28;20060;-47
2023/01/30 01:11:23;;;;;;;1.30;1.20;;;;;;;16.78;56.81;99277.44;2074905;28;22031;-49
2023/01/30 01:12:24;;;;;;;1.92;1.58;;;;;;;16.81;56.79;99282.44;2070748;28;20049;-48
2023/01/30 01:13:25;;;;;;;2.40;1.83;;;;;;;16.84;56.52;99280.22;2066546;28;20053;-47
2023/01/30 01:14:27;;;;;;;;;;;;;;;16.71;56.88;99278.09;2069004;28;20136;-47
2023/01/30 01:15:27;;;;;;;2.58;1.67;;;;;;;16.75;56.79;99282.09;2068274;28;19943;-51
2023/01/30 01:16:30;;;;;;;;;;;;;;;16.65;57.02;99280.63;2069942;28;20049;-45
2023/01/30 01:17:30;;;;;;;2.30;1.35;;;;;;;16.71;56.89;99279.94;2071894;28;19925;-47
2023/01/30 01:18:32;;;;;;;;;;;;;;;16.62;57.05;99281.00;2070079;28;21045;-47
2023/01/30 01:19:33;;;;;;;;;;;;;;;16.53;57.17;99277.53;2070854;28;19929;-50
2023/01/30 01:20:34;;;;;;;3.40;1.77;;;;;;;16.62;57.11;99284.50;2066908;28;19956;-46
2023/01/30 01:21:35;;;;;;;1.52;1.10;;;;;;;16.70;56.68;99286.31;2070386;28;20119;-51
2023/01/30 01:22:36;;;;;;;;;;;;;;;16.60;56.96;99278.47;2071535;28;20049;-48
2023/01/30 01:23:37;;;;;;;2.15;1.42;;;;;;;16.65;56.96;99278.78;2068415;28;19947;-48
2023/01/30 01:24:38;;;;;;;;;;;;;;;16.56;57.15;99276.34;2072386;28;20045;-49
2023/01/30 01:25:39;;;;;;;1.98;1.27;;;;;;;16.61;56.90;99274.81;2070138;28;20006;-46
2023/01/30 01:26:42;;;;;;;;;;;;;;;16.52;57.10;99281.22;2070792;28;20057;-48
2023/01/30 01:27:43;;;;;;;1.60;1.33;;;;;;;16.58;56.89;99269.81;2073501;28;19929;-47
2023/01/30 01:28:45;;;;;;;;;;;;;;;16.50;57.00;99273.34;2066145;28;20592;-47
2023/01/30 01:29:45;;;;;;;1.77;1.38;;;;;;;16.56;56.98;99271.81;2064986;28;19971;-46
2023/01/30 01:30:47;;;;;;;;;;;;;;;16.48;57.11;99271.84;2070338;28;20060;-50
2023/01/30 01:31:47;;;;;;;2.70;1.50;;;;;;;16.54;57.09;99271.16;2069720;28;19933;-52
2023/01/30 01:32:49;;;;;;;;;;;;;;;16.45;57.14;99272.19;2070367;28;20057;-49
2023/01/30 01:33:51;;;;;;;1.27;1.15;;;;;;;16.51;57.10;99275.00;2070214;28;19999;-49
2023/01/30 01:34:52;;;;;;;2.05;1.55;;;;;;;16.56;56.82;99269.13;2068482;28;20099;-50
2023/01/30 01:35:55;;;;;;;;;;;;;;;16.46;57.04;99268.50;2069239;28;20103;-47
2023/01/30 01:36:56;;;;;;;2.58;1.65;;;;;;;16.51;56.91;99263.47;2073615;28;20402;-50
2023/01/30 01:37:57;;;;;;;;;;;;;;;16.41;57.17;99263.69;2070905;28;20075;-49
2023/01/30 01:38:58;;;;;;;2.08;1.80;;;;;;;16.46;57.14;99265.81;2066174;28;19929;-52
2023/01/30 01:41:18;;;;;;;2.38;1.48;;;;;;;16.43;57.14;99263.50;2067540;28;19925;-49
2023/01/30 01:42:23;;;;;;;1.77;1.52;;;;;;;16.49;57.03;99260.13;2070105;28;20108;-50
2023/01/30 01:43:24;;;;;;;2.22;1.50;;;;;;;16.51;57.02;99261.63;2069983;28;21237;-48
2023/01/30 01:44:26;;;;;;;2.75;1.52;;;;;;;16.52;56.73;99262.47;2071555;28;20049;-50
2023/01/30 01:45:26;;;;;;;2.00;1.75;;;;;;;16.52;56.65;99260.63;2067629;28;20053;-50
2023/01/30 01:46:30;;;;;;;;;;;;;;;16.39;57.05;99256.84;2068012;28;20050;-49
2023/01/30 01:47:33;;;;;;;1.67;1.58;;;;;;;16.43;57.10;99252.78;2073421;28;20048;-46
2023/01/30 01:48:40;;;;;;;2.35;1.88;;;;;;;16.49;56.73;99257.44;2069106;28;20789;-46
2023/01/30 01:49:41;;;;;;;2.00;1.45;;;;;;;16.49;56.86;99260.13;2072519;28;20084;-48
2023/01/30 01:50:44;;;;;;;;;;;;;;;16.36;57.07;99251.84;2072885;28;20608;-49
2023/01/30 01:51:51;;;;;;;2.33;1.65;;;;;;;16.39;56.97;99251.50;2064841;28;19929;-49
2023/01/30 01:52:57;;;;;;;1.83;1.42;;;;;;;16.44;56.91;99251.81;2073799;28;20111;-47
2023/01/30 01:54:02;;;;;;;2.33;1.50;;;;;;;16.44;56.84;99255.31;2068270;28;20139;-48
2023/01/30 01:55:06;;;;;;;1.73;1.45;;;;;;;16.41;56.75;99247.63;2073349;28;22266;-50
2023/01/30 01:56:07;;;;;;;1.63;1.48;;;;;;;16.42;56.88;99249.28;2074271;28;20054;-51
2023/01/30 01:57:13;;;;;;;;;;;;;;;16.29;57.05;99251.69;2072007;28;20141;-51
2023/01/30 01:58:19;;;;;;;3.97;1.77;;;;;;;16.31;57.10;99242.47;2070489;28;19968;-46
2023/01/30 01:59:26;;;;;;;1.63;1.35;;;;;;;16.35;57.06;99247.47;2070050;28;20149;-51
2023/01/30 02:00:27;;;;;;;1.75;1.42;;;;;;;16.36;56.97;99241.97;2067714;28;20171;-51
2023/01/30 02:01:29;;;;;;;;;;;;;;;16.24;57.10;99246.00;2067885;28;20637;-51
2023/01/30 02:02:30;;;;;;;2.70;1.77;;;;;;;16.28;57.12;99242.00;2071323;28;19933;-48
2023/01/30 02:03:34;;;;;;;;;;;;;;;16.18;57.19;99242.19;2066844;28;20049;-52
2023/01/30 02:06:00;;;;;;;1.73;1.35;;;;;;;16.23;57.23;99250.53;2071778;28;20049;-46
2023/01/30 02:07:01;;;;;;;2.13;1.45;;;;;;;16.27;57.20;99243.00;2076523;28;20049;-47
2023/01/30 02:08:05;;;;;;;;;;;;;;;16.15;57.39;99245.19;2067845;28;20049;-50
2023/01/30 02:09:09;;;;;;;1.50;1.40;;;;;;;16.21;57.23;99249.84;2068830;28;19994;-47
2023/01/30 02:10:15;;;;;;;1.50;1.40;;;;;;;16.25;57.17;99245.84;2075337;28;20048;-45
2023/01/30 02:11:23;;;;;;;1.75;1.45;;;;;;;16.25;57.11;99247.69;2075896;28;20106;-45
2023/01/30 02:12:25;;;;;;;1.70;1.50;;;;;;;16.26;57.03;99242.16;2067373;28;20283;-48
2023/01/30 02:13:29;;;;;;;2.05;1.42;;;;;;;16.25;56.99;99240.50;2069808;28;20529;-46
2023/01/30 02:14:32;;;;;;;1.55;1.20;;;;;;;16.27;56.95;99243.84;2069795;28;20058;-48
2023/01/30 02:15:35;;;;;;;1.83;1.50;;;;;;;16.25;56.89;99245.84;2070834;28;20084;-48
2023/01/30 02:16:36;;;;;;;1.98;1.48;;;;;;;16.24;56.94;99236.16;2076270;28;20128;-47
2023/01/30 02:17:38;;;;;;;1.98;1.20;;;;;;;16.25;56.96;99236.97;2061061;28;20660;-45
2023/01/30 02:18:42;;;;;;;1.20;1.02;;;;;;;16.25;56.86;99240.50;2067287;28;20658;-45
2023/01/30 02:19:49;;;;;;;2.22;1.75;;;;;;;16.24;57.03;99236.16;2073418;28;20073;-46
2023/01/30 02:21:06;;;;;;;1.95;1.50;;;;;;;16.18;57.09;99242.19;2073972;28;20054;-47
2023/01/30 02:22:20;;;;;;;3.38;1.95;;;;;;;16.16;57.00;99240.69;2066857;28;20058;-46
2023/01/30 02:23:57;;;;;;;1.42;1.33;;;;;;;16.12;57.21;99239.38;2064560;28;20061;-44
2023/01/30 02:25:28;;;;;;;1.40;1.23;;;;;;;16.06;57.31;99239.06;2071968;28;20580;-46
2023/01/30 02:26:58;;;;;;;1.50;1.33;;;;;;;16.05;57.33;99236.56;2029416;29;20075;-46
2023/01/30 02:28:40;;;;;;;2.75;1.75;;;;;;;16.03;57.13;99238.56;2066665;28;20161;-47
2023/01/30 02:30:02;;;;;;;;;;;;;;;15.90;57.66;99239.09;2064495;28;20056;-46
2023/01/30 02:31:21;;;;;;;1.85;1.67;;;;;;;15.97;57.57;99231.25;2071297;28;20020;-44
2023/01/30 02:32:32;;;;;;;1.67;1.40;;;;;;;16.01;57.35;99232.53;2069231;28;20144;-46
2023/01/30 02:33:40;;;;;;;2.55;1.40;;;;;;;16.01;57.32;99233.38;2070158;28;20186;-46
2023/01/30 02:34:52;;;;;;;3.33;1.33;;;;;;;16.01;57.43;99233.38;2069628;28;20041;-45
2023/01/30 02:36:02;;;;;;;2.00;1.30;;;;;;;16.04;57.20;99229.53;2067152;28;20618;-44
2023/01/30 02:37:15;;;;;;;2.38;1.55;;;;;;;16.04;57.21;99235.69;2069914;28;20080;-46
2023/01/30 02:38:31;;;;;;;1.60;1.27;;;;;;;16.04;57.33;99237.56;2065701;28;20119;-47
2023/01/30 02:39:45;;;;;;;2.45;1.58;;;;;;;15.99;57.27;99235.41;2071745;28;20181;-46
2023/01/30 02:40:56;;;;;;;1.50;1.30;;;;;;;16.00;57.10;99236.25;2072469;28;20045;-45
2023/01/30 02:42:05;;;;;;;1.58;1.20;;;;;;;15.99;57.41;99240.75;2069330;28;20060;-47
2023/01/30 02:43:14;;;;;;;2.42;2.03;;;;;;;15.99;57.49;99239.91;2066877;28;20057;-47
2023/01/30 02:44:22;;;;;;;1.60;1.30;;;;;;;15.98;57.30;99243.59;2070121;28;20153;-47
2023/01/30 02:45:30;;;;;;;1.73;1.52;;;;;;;15.96;57.26;99235.72;2069521;28;20053;-44
2023/01/30 02:46:42;;;;;;;3.03;1.33;;;;;;;15.95;57.22;99233.25;2065997;28;20069;-44
2023/01/30 02:47:49;;;;;;;2.85;1.95;;;;;;;15.95;57.34;99239.41;2075232;28;20083;-48
2023/01/30 02:48:56;;;;;;;1.33;1.23;;;;;;;15.97;57.22;99242.75;2070213;28;22006;-47
2023/01/30 02:50:06;;;;;;;1.63;1.40;;;;;;;15.97;57.20;99236.59;2066691;28;20046;-48
2023/01/30 02:51:13;;;;;;;2.95;1.52;;;;;;;15.95;57.16;99233.25;2067986;28;20061;-46
2023/01/30 02:52:15;;;;;;;2.17;1.55;;;;;;;15.94;57.16;99228.91;2065762;28;20072;-48
2023/01/30 02:53:17;;;;;;;3.28;1.50;;;;;;;15.95;57.31;99231.41;2068867;28;20041;-47
2023/01/30 02:54:17;;;;;;;2.42;1.60;;;;;;;15.92;57.32;99231.75;2068132;28;20048;-47
2023/01/30 02:55:20;;;;;;;;;;;;;;;15.80;57.41;99236.63;2071642;28;20049;-47
2023/01/30 02:56:21;;;;;;;2.28;1.05;;;;;;;15.81;57.61;99232.94;2064536;28;19926;-47
2023/01/30 02:57:23;;;;;;;;;;;;;;;15.74;57.74;99233.78;2070672;28;20089;-45
2023/01/30 02:58:28;;;;;;;1.83;1.52;;;;;;;15.80;57.56;99231.28;2070658;28;19925;-46
2023/01/30 02:59:34;;;;;;;1.50;1.13;;;;;;;15.81;57.44;99224.91;2070458;28;20063;-48
2023/01/30 03:00:51;;;;;;;2.03;1.75;;;;;;;15.81;57.41;99232.94;2071818;28;20087;-45
2023/01/30 03:02:10;;;;;;;2.35;1.40;;;;;;;15.80;57.42;99217.91;2067991;28;20469;-48
2023/01/30 03:03:24;;;;;;;1.75;1.30;;;;;;;15.79;57.41;99218.88;2071004;28;20098;-49
2023/01/30 03:04:49;;;;;;;2.20;1.50;;;;;;;15.79;57.44;99215.38;2066437;28;20065;-47
2023/01/30 03:06:05;;;;;;;1.80;1.20;;;;;;;15.80;57.45;99222.41;2069532;28;20076;-48
2023/01/30 03:07:17;;;;;;;1.45;1.35;;;;;;;15.79;57.37;99221.56;2070226;28;21017;-49
2023/01/30 03:08:24;;;;;;;2.17;1.58;;;;;;;15.79;57.41;99218.06;2073073;28;20053;-47
2023/01/30 03:09:33;;;;;;;1.33;1.23;;;;;;;15.77;57.46;99215.56;2069576;28;20060;-47
2023/01/30 03:10:41;;;;;;;1.88;1.65;;;;;;;15.78;57.36;99216.41;2068429;28;20567;-48
2023/01/30 03:11:49;;;;;;;2.03;1.42;;;;;;;15.79;57.53;99215.38;2064041;28;20181;-51
2023/01/30 03:12:57;;;;;;;2.60;1.67;;;;;;;15.77;57.50;99212.91;2072508;28;20438;-52
2023/01/30 03:14:08;;;;;;;1.80;1.63;;;;;;;15.75;57.42;99220.25;2068902;28;20053;-48
2023/01/30 03:15:13;;;;;;;1.77;1.35;;;;;;;15.76;57.35;99221.91;2062929;28;22503;-55
2023/01/30 03:16:19;;;;;;;1.85;1.63;;;;;;;15.74;57.36;99209.72;2071470;28;20049;-51
2023/01/30 03:17:23;;;;;;;1.73;1.30;;;;;;;15.75;57.33;99209.56;2072408;28;20057;-52
2023/01/30 03:18:25;;;;;;;3.00;1.90;;;;;;;15.74;57.37;99210.56;2067769;28;20056;-47
2023/01/30 03:19:28;;;;;;;1.60;1.25;;;;;;;15.74;57.60;99207.91;2067629;28;20123;-49
2023/01/30 03:20:31;;;;;;;2.25;1.33;;;;;;;15.74;57.39;99199.88;2069779;28;20053;-50
2023/01/30 03:21:32;;;;;;;1.35;1.25;;;;;;;15.73;57.30;99202.69;2069174;28;20045;-55
2023/01/30 03:22:33;;;;;;;;;;;;;;;15.59;57.70;99201.53;2064033;28;20042;-49
2023/01/30 03:23:34;;;;;;;2.05;1.85;;;;;;;15.63;57.67;99205.53;2070743;28;19929;-48
2023/01/30 03:24:35;;;;;;;;;;;;;;;15.53;58.02;99202.22;2070588;28;20045;-48
2023/01/30 03:25:38;;;;;;;2.72;1.55;;;;;;;15.55;57.87;99200.22;2070515;28;19924;-52
2023/01/30 03:26:45;;;;;;;2.50;1.70;;;;;;;15.61;57.51;99204.88;2064762;28;20033;-50
2023/01/30 03:27:46;;;;;;;1.88;1.55;;;;;;;15.62;57.66;99204.69;2073880;28;20150;-54
2023/01/30 03:28:50;;;;;;;1.73;1.50;;;;;;;15.65;57.54;99206.19;2074315;28;20049;-47
2023/01/30 03:29:50;;;;;;;1.83;1.40;;;;;;;15.64;57.54;99207.19;2073168;28;20495;-47
2023/01/30 03:30:52;;;;;;;;;;;;;;;15.53;57.88;99204.88;2071345;28;20045;-45
2023/01/30 03:31:52;;;;;;;1.08;0.85;;;;;;;15.55;57.76;99200.22;2068477;28;19987;-46
2023/01/30 03:32:55;;;;;;;;;;;;;;;15.46;57.92;99195.88;2072094;28;20040;-48
2023/01/30 03:33:56;;;;;;;2.00;1.73;;;;;;;15.50;57.90;99198.03;2069519;28;19929;-47
2023/01/30 03:34:57;;;;;;;;;;;;;;;15.39;58.20;99198.38;2062926;28;20127;-45
2023/01/30 03:35:58;;;;;;;2.25;1.40;;;;;;;15.47;58.10;99205.56;2071035;28;19929;-46
2023/01/30 03:36:59;;;;;;;;;;;;;;;15.38;58.26;99200.22;2071690;28;20590;-46
2023/01/30 03:38:00;;;;;;;1.95;1.40;;;;;;;15.46;58.12;99190.50;2064562;28;19925;-45
2023/01/30 03:39:02;;;;;;;;;;;;;;;15.38;58.14;99196.72;2071156;28;20115;-47
2023/01/30 03:40:03;;;;;;;2.67;1.33;;;;;;;15.46;58.12;99193.19;2062533;28;19985;-46
2023/01/30 03:41:06;;;;;;;1.42;1.23;;;;;;;15.49;57.93;99191.03;2074694;28;20048;-48
2023/01/30 03:42:07;;;;;;;1.33;1.23;;;;;;;15.53;57.75;99191.53;2063865;28;20453;-49
2023/01/30 03:43:08;;;;;;;;;;;;;;;15.39;58.16;99191.19;2069384;28;20045;-47
2023/01/30 03:44:09;;;;;;;1.98;1.30;;;;;;;15.43;58.04;99186.34;2072308;28;19932;-45
2023/01/30 03:45:11;;;;;;;;;;;;;;;15.35;58.20;99186.34;2069400;28;20646;-47
2023/01/30 03:46:11;;;;;;;2.17;1.65;;;;;;;15.39;58.06;99180.50;2072811;28;19933;-49
2023/01/30 03:47:13;;;;;;;;;;;;;;;15.32;58.36;99187.56;2069320;28;20058;-47
2023/01/30 03:48:15;;;;;;;1.40;1.27;;;;;;;15.38;57.93;99188.72;2068896;28;19921;-47
2023/01/30 03:49:16;;;;;;;1.85;1.60;;;;;;;15.43;58.05;99186.34;2061022;28;20045;-50
2023/01/30 03:50:17;;;;;;;2.58;1.73;;;;;;;15.48;57.84;99188.50;2063272;28;20056;-46
2023/01/30 03:51:19;;;;;;;;;;;;;;;15.32;58.06;99190.22;2068879;28;20231;-47
2023/01/30 03:52:19;;;;;;;1.25;1.15;;;;;;;15.37;58.08;99189.69;2072647;28;20024;-48
2023/01/30 03:53:21;;;;;;;;;;;;;;;15.27;58.39;99189.06;2074891;28;20754;-46
2023/01/30 03:54:21;;;;;;;3.15;1.70;;;;;;;15.32;58.10;99190.22;2070406;28;19929;-49
2023/01/30 03:55:23;;;;;;;;;;;;;;;15.27;58.40;99191.72;2065901;28;20045;-47
2023/01/30 03:56:23;;;;;;;1.73;1.60;;;;;;;15.32;58.16;99192.03;2067951;28;20002;-48
2023/01/30 03:57:25;;;;;;;;;;;;;;;15.25;58.37;99183.03;2074708;28;21175;-47
2023/01/30 03:58:26;;;;;;;1.60;1.48;;;;;;;15.31;58.08;99185.84;2066632;28;19925;-49
2023/01/30 03:59:27;;;;;;;;;;;;;;;15.22;58.40;99194.91;2065730;28;20163;-46
2023/01/30 04:00:28;;;;;;;2.42;1.95;;;;;;;15.27;58.38;99187.22;2066467;28;19925;-46
2023/01/30 04:01:29;;;;;;;;;;;;;;;15.20;58.41;99186.19;2065506;28;20439;-47
2023/01/30 04:02:30;;;;;;;2.25;1.80;;;;;;;15.26;58.27;99190.88;2065414;28;19983;-46
2023/01/30 04:03:33;;;;;;;;;;;;;;;15.20;58.29;99186.19;2072934;28;20886;-47
2023/01/30 04:04:33;;;;;;;2.25;1.85;;;;;;;15.26;58.34;99190.88;2067940;28;20634;-48
2023/01/30 04:05:35;;;;;;;;;;;;;;;15.20;58.32;99191.56;2070041;28;20110;-48
2023/01/30 04:06:36;;;;;;;1.95;1.30;;;;;;;15.25;58.28;99191.88;2070626;28;19982;-47
2023/01/30 04:07:37;;;;;;;1.23;1.13;;;;;;;15.30;58.18;99188.72;2070868;28;20045;-48
2023/01/30 04:08:39;;;;;;;;;;;;;;;15.16;58.33;99190.22;2060051;28;20466;-47
2023/01/30 04:09:39;;;;;;;2.60;1.60;;;;;;;15.24;58.27;99186.69;2070502;28;19932;-48
2023/01/30 04:10:41;;;;;;;;;;;;;;;15.13;58.29;99183.38;2063317;28;20462;-47
2023/01/30 04:11:41;;;;;;;1.73;1.35;;;;;;;15.20;58.30;99181.69;2072198;28;19928;-47
2023/01/30 04:12:43;;;;;;;;;;;;;;;15.11;58.49;99181.88;2068008;28;20143;-47
2023/01/30 04:13:43;;;;;;;1.38;1.27;;;;;;;15.18;58.38;99182.84;2070147;28;20602;-46
2023/01/30 04:14:45;;;;;;;;;;;;;;;15.11;58.47;99189.91;2068488;28;20046;-47
2023/01/30 04:15:45;;;;;;;2.15;1.27;;;;;;;15.15;58.34;99180.53;2067668;28;20560;-48
2023/01/30 04:16:47;;;;;;;;;;;;;;;15.12;58.60;99178.19;2066333;28;20056;-47
2023/01/30 04:17:48;;;;;;;2.22;1.42;;;;;;;15.18;58.45;99177.50;2072401;28;19921;-49
2023/01/30 04:18:51;;;;;;;;;;;;;;;15.09;58.41;99176.69;2066689;28;20104;-48
2023/01/30 04:19:51;;;;;;;1.83;1.20;;;;;;;15.16;58.24;99175.03;2068290;28;19937;-47
2023/01/30 04:20:53;;;;;;;;;;;;;;;15.08;58.47;99179.53;2066608;28;20057;-47
2023/01/30 04:21:54;;;;;;;2.67;1.50;;;;;;;15.13;58.33;99175.38;2076517;28;20366;-49
2023/01/30 04:22:55;;;;;;;;;;;;;;;15.04;58.62;99181.69;2067200;28;20049;-47
2023/01/30 04:23:56;;;;;;;2.60;1.83;;;;;;;15.11;58.47;99176.53;2066513;28;19925;-46
2023/01/30 04:24:57;;;;;;;;;;;;;;;15.04;58.41;99175.53;2072895;28;20728;-49
2023/01/30 04:25:58;;;;;;;2.55;1.45;;;;;;;15.12;58.21;99172.84;2058249;28;20076;-50
2023/01/30 04:26:59;;;;;;;;;;;;;;;15.03;58.47;99173.88;2060561;28;21549;-48
2023/01/30 04:28:00;;;;;;;2.42;1.73;;;;;;;15.10;58.40;99174.84;2070366;28;19994;-47
2023/01/30 04:29:01;;;;;;;;;;;;;;;15.00;58.54;99180.38;2068888;28;20045;-48
2023/01/30 04:30:03;;;;;;;2.05;1.40;;;;;;;15.06;58.54;99179.69;2071820;28;19925;-49
2023/01/30 04:31:04;;;;;;;1.48;1.33;;;;;;;15.08;58.40;99180.38;2065035;28;20054;-48
2023/01/30 04:32:05;;;;;;;2.10;1.77;;;;;;;15.11;58.32;99174.69;2070615;28;20127;-46
2023/01/30 04:33:07;;;;;;;;;;;;;;;15.04;58.36;99178.19;2067191;28;20541;-47
2023/01/30 04:34:09;;;;;;;1.35;1.10;;;;;;;15.08;58.25;99179.53;2072339;28;19924;-46
2023/01/30 04:35:11;;;;;;;1.30;1.20;;;;;;;15.13;58.23;99169.19;2070792;28;20701;-47
2023/01/30 04:36:12;;;;;;;2.67;1.73;;;;;;;15.14;58.06;99181.53;2062578;28;20061;-48
2023/01/30 04:37:13;;;;;;;2.50;1.77;;;;;;;15.16;58.10;99174.19;2069070;28;20057;-47
2023/01/30 04:38:14;;;;;;;;;;;;;;;15.05;58.30;99178.03;2069482;28;21062;-47
2023/01/30 04:39:15;;;;;;;1.38;1.27;;;;;;;15.06;58.14;99179.69;2066357;28;20356;-46
2023/01/30 04:40:17;;;;;;;;;;;;;;;15.00;58.34;99180.38;2072924;28;20100;-47
2023/01/30 04:41:17;;;;;;;;;;;;;;;14.92;58.70;99181.19;2067972;28;19933;-47
2023/01/30 04:42:19;;;;;;;2.33;1.60;;;;;;;14.99;58.53;99186.72;2070094;28;19936;-47
2023/01/30 04:43:20;;;;;;;1.35;1.20;;;;;;;15.04;58.30;99181.69;2064208;28;20049;-46
2023/01/30 04:44:22;;;;;;;2.25;1.75;;;;;;;15.08;58.31;99188.38;2072059;28;20068;-46
2023/01/30 04:45:23;;;;;;;2.65;1.52;;;;;;;15.11;58.12;99181.88;2062477;28;20053;-47
2023/01/30 04:46:24;;;;;;;;;;;;;;;15.00;58.36;99176.88;2069910;28;20077;-48
2023/01/30 04:47:25;;;;;;;1.80;1.23;;;;;;;14.99;58.47;99184.06;2063295;28;19947;-48
2023/01/30 04:48:26;;;;;;;;;;;;;;;14.91;58.64;99176.03;2070247;28;20547;-47
2023/01/30 04:49:28;;;;;;;2.05;1.73;;;;;;;14.97;58.60;99178.88;2069339;28;19929;-48
2023/01/30 04:50:30;;;;;;;2.20;1.73;;;;;;;15.03;58.37;99176.53;2070420;28;20079;-47
2023/01/30 04:51:31;;;;;;;1.23;1.13;;;;;;;15.05;58.26;99177.22;2065690;28;20053;-49
2023/01/30 04:52:32;;;;;;;;;;;;;;;14.93;58.38;99174.88;2074206;28;20061;-49
2023/01/30 04:53:34;;;;;;;1.48;1.30;;;;;;;14.97;58.19;99184.22;2065168;28;20493;-49
2023/01/30 04:54:34;;;;;;;1.95;1.20;;;;;;;14.99;58.43;99184.06;2073439;28;20079;-48
2023/01/30 04:55:36;;;;;;;;;;;;;;;14.92;58.49;99180.38;2072965;28;20083;-46
2023/01/30 04:56:37;;;;;;;2.08;1.58;;;;;;;14.96;58.48;99179.88;2071993;28;19925;-47
2023/01/30 04:57:38;;;;;;;;;;;;;;;14.87;58.63;99175.50;2068419;28;20095;-47
2023/01/30 04:58:39;;;;;;;2.13;1.60;;;;;;;14.92;58.33;99181.19;2069156;28;20378;-48
2023/01/30 04:59:41;;;;;;;;;;;;;;;14.86;58.60;99173.84;2065149;28;20053;-47
2023/01/30 05:00:41;;;;;;;;;;;;;;;14.79;58.86;99172.00;2071118;28;19960;-48
2023/01/30 05:01:43;;;;;;;1.23;1.17;;;;;;;14.82;58.79;99177.88;2071767;28;26721;-50
2023/01/30 05:02:43;;;;;;;2.45;1.50;;;;;;;14.90;58.63;99179.69;2067870;28;20042;-47
2023/01/30 05:03:45;;;;;;;;;;;;;;;14.83;58.44;99173.34;2071761;28;20494;-47
2023/01/30 05:04:49;;;;;;;2.75;1.55;;;;;;;14.89;58.54;99180.69;2069809;28;20471;-48
2023/01/30 05:05:51;;;;;;;2.42;1.30;;;;;;;14.94;58.11;99175.69;2067253;28;20049;-48
2023/01/30 05:06:51;;;;;;;2.53;1.80;;;;;;;14.96;58.27;99177.22;2069969;28;20495;-46
2023/01/30 05:07:54;;;;;;;;;;;;;;;14.85;58.53;99174.88;2074981;28;20145;-46
2023/01/30 05:08:56;;;;;;;1.48;1.38;;;;;;;14.89;58.33;99178.84;2076194;28;19925;-49
2023/01/30 05:09:57;;;;;;;1.55;1.45;;;;;;;14.92;58.27;99173.19;2062018;28;20056;-46
2023/01/30 05:10:58;;;;;;;1.50;1.40;;;;;;;14.97;58.03;99178.03;2068836;28;21119;-48
2023/01/30 05:11:59;;;;;;;;;;;;;;;14.87;58.46;99178.19;2066745;28;20049;-50
2023/01/30 05:13:03;;;;;;;2.53;2.00;;;;;;;14.89;58.20;99178.84;2069750;28;19925;-46
2023/01/30 05:14:05;;;;;;;2.40;1.80;;;;;;;14.91;58.12;99174.19;2069350;28;20057;-48
2023/01/30 05:15:07;;;;;;;1.27;1.15;;;;;;;14.92;58.23;99173.19;2070820;28;20053;-47